createdAt,value
2018-03-03T00:01:03.507Z,36.17
2018-03-03T00:06:06.084Z,39.30
2018-03-03T00:11:08.653Z,41.83
2018-03-03T00:16:11.192Z,39.80
2018-03-03T00:21:13.737Z,45.27
2018-03-03T00:26:16.299Z,40.27
2018-03-03T00:31:18.828Z,42.30
2018-03-03T00:36:21.370Z,40.90
2018-03-03T00:41:23.905Z,42.70
2018-03-03T00:46:26.435Z,44.10
2018-03-03T00:51:28.963Z,48.57
2018-03-03T00:56:31.495Z,53.90
2018-03-03T01:01:35.185Z,43.40
2018-03-03T01:06:37.715Z,44.13
2018-03-03T01:11:40.307Z,37.67
2018-03-03T01:16:42.853Z,46.20
2018-03-03T01:21:45.390Z,46.00
2018-03-03T01:26:47.968Z,41.13
2018-03-03T01:31:50.506Z,43.27
2018-03-03T01:36:53.040Z,54.27
2018-03-03T01:41:55.593Z,45.67
2018-03-03T01:46:58.142Z,45.93
2018-03-03T01:52:00.840Z,49.03
2018-03-03T01:57:03.383Z,49.43
2018-03-03T02:02:05.968Z,45.40
2018-03-03T02:07:08.530Z,49.30
2018-03-03T02:12:11.076Z,51.40
2018-03-03T02:17:13.610Z,42.63
2018-03-03T02:22:16.148Z,47.47
2018-03-03T02:27:18.789Z,43.37
2018-03-03T02:32:21.372Z,42.97
2018-03-03T02:37:23.963Z,48.10
2018-03-03T02:42:26.505Z,48.03
2018-03-03T02:47:29.070Z,40.73
2018-03-03T02:52:31.600Z,47.80
2018-03-03T02:57:34.148Z,47.90
2018-03-03T03:02:36.708Z,45.03
2018-03-03T03:07:39.257Z,39.07
2018-03-03T03:12:41.804Z,46.47
2018-03-03T03:17:44.349Z,38.13
2018-03-03T03:22:46.894Z,42.77
2018-03-03T03:27:49.425Z,44.40
2018-03-03T03:32:51.978Z,42.30
2018-03-03T03:37:54.507Z,46.67
2018-03-03T03:42:57.041Z,45.57
2018-03-03T03:47:59.597Z,42.47
2018-03-03T03:53:02.144Z,50.53
2018-03-03T03:58:04.754Z,42.00
2018-03-03T04:03:07.290Z,49.50
2018-03-03T04:08:09.812Z,45.00
2018-03-03T04:13:12.342Z,44.87
2018-03-03T04:18:14.886Z,45.83
2018-03-03T04:23:17.423Z,40.50
2018-03-03T04:28:19.964Z,45.17
2018-03-03T04:33:22.485Z,47.93
2018-03-03T04:38:25.022Z,45.47
2018-03-03T04:43:27.555Z,54.93
2018-03-03T04:48:30.090Z,47.53
2018-03-03T04:53:32.622Z,48.73
2018-03-03T04:58:41.185Z,51.47
2018-03-03T05:03:47.538Z,44.57
2018-03-03T05:08:50.072Z,50.87
2018-03-03T05:14:02.510Z,49.40
2018-03-03T05:25:02.967Z,43.00
2018-03-03T05:30:11.182Z,40.33
2018-03-03T05:41:14.660Z,46.00
2018-03-03T05:46:22.817Z,52.77
2018-03-03T05:51:36.130Z,45.90
2018-03-03T06:02:31.603Z,56.10
2018-03-03T06:07:39.766Z,46.73
2018-03-03T06:12:42.300Z,47.53
2018-03-03T06:17:44.825Z,50.07
2018-03-03T06:22:47.382Z,45.33
2018-03-03T06:27:49.915Z,49.67
2018-03-03T06:32:52.470Z,42.97
2018-03-03T06:37:55.056Z,49.10
2018-03-03T06:42:57.606Z,47.30
2018-03-03T06:48:00.161Z,43.20
2018-03-03T06:53:02.691Z,45.03
2018-03-03T06:58:05.215Z,51.47
2018-03-03T07:03:07.771Z,43.80
2018-03-03T07:08:10.315Z,52.50
2018-03-03T07:13:12.855Z,53.10
2018-03-03T07:18:15.392Z,52.70
2018-03-03T07:23:17.955Z,46.17
2018-03-03T07:28:20.545Z,45.10
2018-03-03T07:33:23.058Z,44.47
2018-03-03T07:38:25.633Z,43.27
2018-03-03T07:43:28.180Z,45.43
2018-03-03T07:48:30.723Z,46.67
2018-03-03T07:53:33.277Z,46.77
2018-03-03T07:58:47.599Z,43.07
2018-03-03T08:03:50.134Z,41.40
2018-03-03T08:08:52.668Z,41.33
2018-03-03T08:13:55.186Z,39.03
2018-03-03T08:18:57.891Z,44.13
2018-03-03T08:24:00.430Z,39.27
2018-03-03T08:29:02.965Z,39.73
2018-03-03T08:34:05.495Z,38.97
2018-03-03T08:39:08.015Z,44.07
2018-03-03T08:44:10.550Z,39.57
2018-03-03T08:49:13.082Z,45.13
2018-03-03T08:54:15.623Z,33.50
2018-03-03T08:59:18.162Z,35.50
2018-03-03T09:04:20.703Z,33.90
2018-03-03T09:09:23.247Z,35.60
2018-03-03T09:14:25.850Z,36.07
2018-03-03T09:19:28.444Z,34.77
2018-03-03T09:24:30.975Z,28.07
2018-03-03T09:29:33.634Z,30.50
2018-03-03T09:34:36.162Z,26.13
2018-03-03T09:39:38.958Z,33.87
2018-03-03T09:44:41.510Z,30.87
2018-03-03T09:49:44.204Z,28.87
2018-03-03T09:54:46.732Z,31.23
2018-03-03T09:59:49.250Z,26.60
2018-03-03T10:04:51.795Z,26.37
2018-03-03T10:09:54.337Z,26.13
2018-03-03T10:14:56.865Z,27.90
2018-03-03T10:19:59.392Z,22.20
2018-03-03T10:25:01.967Z,29.80
2018-03-03T10:30:04.548Z,26.60
2018-03-03T10:35:07.085Z,28.23
2018-03-03T10:40:09.723Z,28.47
2018-03-03T10:45:12.294Z,26.50
2018-03-03T10:50:14.822Z,28.80
2018-03-03T10:55:17.346Z,30.00
2018-03-03T11:00:25.427Z,26.90
2018-03-03T11:05:27.950Z,24.23
2018-03-03T11:10:30.509Z,25.03
2018-03-03T11:15:33.037Z,30.90
2018-03-03T11:20:35.604Z,25.13
2018-03-03T11:25:38.128Z,25.53
2018-03-03T11:30:40.776Z,25.33
2018-03-03T11:35:43.299Z,26.07
2018-03-03T11:40:45.839Z,29.33
2018-03-03T11:45:48.355Z,24.63
2018-03-03T11:50:50.862Z,29.03
2018-03-03T11:55:53.380Z,26.27
2018-03-03T12:00:55.913Z,24.00
2018-03-03T12:05:58.457Z,22.03
2018-03-03T12:11:00.987Z,22.80
2018-03-03T12:16:03.544Z,25.67
2018-03-03T12:21:06.089Z,30.07
2018-03-03T12:26:08.695Z,19.80
2018-03-03T12:31:11.259Z,22.87
2018-03-03T12:36:13.807Z,20.13
2018-03-03T12:41:17.038Z,18.10
2018-03-03T12:46:19.584Z,19.10
2018-03-03T12:51:22.112Z,24.43
2018-03-03T12:56:24.632Z,20.97
2018-03-03T13:01:27.179Z,20.30
2018-03-03T13:06:29.716Z,23.40
2018-03-03T13:11:32.251Z,20.90
2018-03-03T13:16:34.801Z,25.07
2018-03-03T13:21:37.326Z,26.23
2018-03-03T13:26:39.863Z,22.97
2018-03-03T13:31:42.399Z,19.13
2018-03-03T13:36:44.924Z,23.63
2018-03-03T13:41:47.468Z,23.03
2018-03-03T13:46:50.015Z,20.80
2018-03-03T13:51:52.581Z,19.80
2018-03-03T13:56:55.099Z,20.50
2018-03-03T14:01:57.633Z,23.07
2018-03-03T14:07:00.154Z,17.87
2018-03-03T14:12:03.310Z,20.70
2018-03-03T14:17:05.859Z,22.93
2018-03-03T14:22:08.378Z,20.47
2018-03-03T14:27:10.898Z,23.93
2018-03-03T14:32:13.430Z,18.03
2018-03-03T14:37:15.989Z,17.63
2018-03-03T14:42:18.795Z,21.03
2018-03-03T14:47:21.370Z,16.77
2018-03-03T14:52:23.931Z,19.43
2018-03-03T14:57:26.515Z,21.50
2018-03-03T15:02:29.078Z,21.20
2018-03-03T15:07:31.766Z,20.80
2018-03-03T15:12:34.304Z,22.53
2018-03-03T15:17:37.193Z,24.33
2018-03-03T15:22:39.739Z,25.03
2018-03-03T15:27:42.300Z,18.13
2018-03-03T15:32:44.834Z,22.03
2018-03-03T15:37:47.411Z,23.27
2018-03-03T15:42:49.965Z,20.83
2018-03-03T15:47:52.496Z,20.30
2018-03-03T15:52:55.077Z,20.67
2018-03-03T15:57:57.650Z,27.77
2018-03-03T16:03:00.215Z,21.83
2018-03-03T16:08:02.907Z,25.03
2018-03-03T16:13:05.440Z,22.33
2018-03-03T16:18:07.984Z,22.47
2018-03-03T16:23:10.540Z,21.83
2018-03-03T16:28:13.080Z,26.57
2018-03-03T16:33:15.611Z,23.27
2018-03-03T16:38:18.155Z,22.47
2018-03-03T16:43:20.732Z,24.20
2018-03-03T16:48:23.278Z,28.13
2018-03-03T16:53:25.832Z,29.10
2018-03-03T16:58:28.421Z,27.40
2018-03-03T17:03:34.022Z,23.43
2018-03-03T17:08:36.929Z,28.07
2018-03-03T17:13:39.508Z,27.30
2018-03-03T17:18:42.102Z,30.80
2018-03-03T17:23:44.640Z,26.33
2018-03-03T17:28:47.255Z,32.60
2018-03-03T17:33:49.821Z,24.33
2018-03-03T17:38:52.345Z,28.53
2018-03-03T17:43:54.876Z,27.30
2018-03-03T17:48:57.546Z,25.40
2018-03-03T17:54:00.147Z,30.33
2018-03-03T17:59:02.762Z,26.63
2018-03-03T18:04:05.309Z,24.53
2018-03-03T18:09:07.841Z,27.23
2018-03-03T18:14:10.382Z,25.07
2018-03-03T18:19:12.920Z,24.70
2018-03-03T18:24:27.331Z,26.93
2018-03-03T18:29:30.123Z,30.07
2018-03-03T18:34:32.762Z,30.00
2018-03-03T18:39:35.922Z,29.30
2018-03-03T18:44:38.516Z,28.67
2018-03-03T18:49:41.230Z,31.47
2018-03-03T18:54:43.810Z,30.37
2018-03-03T18:59:46.372Z,25.30
2018-03-03T19:04:48.907Z,28.70
2018-03-03T19:09:51.521Z,32.57
2018-03-03T19:14:54.060Z,31.10
2018-03-03T19:19:58.276Z,24.67
2018-03-03T19:25:00.848Z,32.67
2018-03-03T19:30:04.091Z,31.30
2018-03-03T19:35:07.194Z,35.23
2018-03-03T19:40:09.779Z,32.43
2018-03-03T19:45:12.317Z,30.27
2018-03-03T19:50:15.883Z,27.60
2018-03-03T19:55:18.445Z,33.67
2018-03-03T20:00:21.000Z,34.27
2018-03-03T20:05:23.594Z,33.63
2018-03-03T20:10:26.211Z,28.60
2018-03-03T20:15:28.915Z,32.43
2018-03-03T20:20:31.506Z,35.63
2018-03-03T20:25:34.045Z,36.03
2018-03-03T20:30:36.766Z,36.10
2018-03-03T20:35:39.316Z,33.83
2018-03-03T20:40:41.865Z,31.87
2018-03-03T20:45:44.428Z,35.90
2018-03-03T20:50:47.029Z,34.40
2018-03-03T20:55:49.867Z,33.07
2018-03-03T21:00:53.004Z,38.20
2018-03-03T21:05:56.345Z,33.63
2018-03-03T21:10:59.046Z,37.83
2018-03-03T21:16:01.839Z,37.13
2018-03-03T21:21:17.206Z,36.70
2018-03-03T21:26:19.912Z,45.63
2018-03-03T21:31:22.531Z,41.27
2018-03-03T21:36:25.142Z,41.10
2018-03-03T21:41:27.724Z,35.57
2018-03-03T21:46:30.251Z,43.27
2018-03-03T21:51:32.852Z,41.73
2018-03-03T21:56:35.389Z,37.20
2018-03-03T22:01:38.050Z,35.63
2018-03-03T22:06:40.652Z,41.77
2018-03-03T22:11:43.237Z,36.23
2018-03-03T22:16:45.869Z,38.43
2018-03-03T22:21:48.465Z,38.63
2018-03-03T22:26:51.013Z,40.70
2018-03-03T22:31:53.552Z,45.10
2018-03-03T22:36:56.092Z,42.00
2018-03-03T22:41:58.645Z,41.20
2018-03-03T22:47:01.174Z,42.80
2018-03-03T22:52:03.736Z,39.90
2018-03-03T22:57:06.464Z,37.60
2018-03-03T23:02:09.245Z,38.13
2018-03-03T23:07:11.897Z,46.37
2018-03-03T23:12:14.536Z,41.10
2018-03-03T23:17:17.112Z,42.17
2018-03-03T23:22:19.671Z,41.80
2018-03-03T23:27:22.232Z,36.00
2018-03-03T23:32:24.783Z,41.50
2018-03-03T23:37:27.322Z,44.63
2018-03-03T23:42:29.888Z,44.10
2018-03-03T23:47:32.687Z,45.80
2018-03-03T23:52:35.310Z,42.63
2018-03-03T23:57:38.175Z,43.87
